sensor_id;sensor_type;location;lat;lon;timestamp;P1;durP1;ratioP1;P2;durP2;ratioP2
17228;SDS011;8731;50.364;8.958;2022-09-13T00:00:42;5.57;;;4.93;;
17228;SDS011;8731;50.364;8.958;2022-09-13T00:05:07;8.70;;;5.43;;
17228;SDS011;8731;50.364;8.958;2022-09-13T00:09:29;5.60;;;5.10;;
17228;SDS011;8731;50.364;8.958;2022-09-13T00:13:52;6.30;;;5.70;;
17228;SDS011;8731;50.364;8.958;2022-09-13T00:18:16;5.90;;;5.30;;
17228;SDS011;8731;50.364;8.958;2022-09-13T00:22:40;5.63;;;5.13;;
17228;SDS011;8731;50.364;8.958;2022-09-13T00:27:03;5.63;;;5.13;;
17228;SDS011;8731;50.364;8.958;2022-09-13T00:31:26;4.73;;;4.33;;
17228;SDS011;8731;50.364;8.958;2022-09-13T00:35:49;6.50;;;5.07;;
17228;SDS011;8731;50.364;8.958;2022-09-13T00:40:12;7.67;;;4.80;;
17228;SDS011;8731;50.364;8.958;2022-09-13T00:49:36;5.73;;;5.23;;
17228;SDS011;8731;50.364;8.958;2022-09-13T00:54:01;5.60;;;5.10;;
17228;SDS011;8731;50.364;8.958;2022-09-13T00:58:27;6.17;;;5.57;;
17228;SDS011;8731;50.364;8.958;2022-09-13T01:02:54;7.00;;;5.33;;
17228;SDS011;8731;50.364;8.958;2022-09-13T01:07:20;7.33;;;6.03;;
17228;SDS011;8731;50.364;8.958;2022-09-13T01:11:44;7.97;;;5.60;;
17228;SDS011;8731;50.364;8.958;2022-09-13T01:16:16;6.23;;;5.40;;
17228;SDS011;8731;50.364;8.958;2022-09-13T01:20:45;6.70;;;5.50;;
17228;SDS011;8731;50.364;8.958;2022-09-13T01:25:49;7.00;;;6.30;;
17228;SDS011;8731;50.364;8.958;2022-09-13T01:31:03;8.43;;;6.73;;
17228;SDS011;8731;50.364;8.958;2022-09-13T01:35:36;7.70;;;6.30;;
17228;SDS011;8731;50.364;8.958;2022-09-13T01:40:18;8.90;;;6.10;;
17228;SDS011;8731;50.364;8.958;2022-09-13T01:45:11;6.23;;;5.50;;
17228;SDS011;8731;50.364;8.958;2022-09-13T01:49:50;6.97;;;5.80;;
17228;SDS011;8731;50.364;8.958;2022-09-13T01:54:33;8.37;;;6.33;;
17228;SDS011;8731;50.364;8.958;2022-09-13T01:59:11;7.53;;;6.17;;
17228;SDS011;8731;50.364;8.958;2022-09-13T02:03:43;6.77;;;6.17;;
17228;SDS011;8731;50.364;8.958;2022-09-13T02:08:17;6.93;;;6.27;;
17228;SDS011;8731;50.364;8.958;2022-09-13T02:12:46;6.73;;;6.03;;
17228;SDS011;8731;50.364;8.958;2022-09-13T02:17:11;8.03;;;6.67;;
17228;SDS011;8731;50.364;8.958;2022-09-13T02:21:39;8.83;;;6.77;;
17228;SDS011;8731;50.364;8.958;2022-09-13T02:26:09;9.27;;;6.73;;
17228;SDS011;8731;50.364;8.958;2022-09-13T02:30:36;7.70;;;6.07;;
17228;SDS011;8731;50.364;8.958;2022-09-13T02:35:07;7.13;;;6.43;;
17228;SDS011;8731;50.364;8.958;2022-09-13T02:39:38;7.30;;;6.60;;
17228;SDS011;8731;50.364;8.958;2022-09-13T02:44:09;7.27;;;6.23;;
17228;SDS011;8731;50.364;8.958;2022-09-13T02:48:37;6.83;;;5.67;;
17228;SDS011;8731;50.364;8.958;2022-09-13T02:53:13;6.77;;;5.77;;
17228;SDS011;8731;50.364;8.958;2022-09-13T02:57:51;7.50;;;6.23;;
17228;SDS011;8731;50.364;8.958;2022-09-13T03:02:24;8.23;;;6.43;;
17228;SDS011;8731;50.364;8.958;2022-09-13T03:06:52;6.47;;;5.87;;
17228;SDS011;8731;50.364;8.958;2022-09-13T03:11:14;8.47;;;6.60;;
17228;SDS011;8731;50.364;8.958;2022-09-13T03:15:54;8.73;;;6.33;;
17228;SDS011;8731;50.364;8.958;2022-09-13T03:20:35;7.17;;;6.40;;
17228;SDS011;8731;50.364;8.958;2022-09-13T03:25:07;7.90;;;6.23;;
17228;SDS011;8731;50.364;8.958;2022-09-13T03:29:40;7.27;;;6.63;;
17228;SDS011;8731;50.364;8.958;2022-09-13T03:34:12;7.20;;;6.50;;
17228;SDS011;8731;50.364;8.958;2022-09-13T03:38:50;8.03;;;7.23;;
17228;SDS011;8731;50.364;8.958;2022-09-13T03:43:23;10.67;;;7.10;;
17228;SDS011;8731;50.364;8.958;2022-09-13T03:47:54;8.60;;;6.50;;
17228;SDS011;8731;50.364;8.958;2022-09-13T03:52:18;8.57;;;6.73;;
17228;SDS011;8731;50.364;8.958;2022-09-13T03:56:42;7.53;;;5.90;;
17228;SDS011;8731;50.364;8.958;2022-09-13T04:01:04;6.73;;;5.90;;
17228;SDS011;8731;50.364;8.958;2022-09-13T04:05:27;6.93;;;6.33;;
17228;SDS011;8731;50.364;8.958;2022-09-13T04:09:49;9.60;;;6.23;;
17228;SDS011;8731;50.364;8.958;2022-09-13T04:14:13;7.20;;;6.40;;
17228;SDS011;8731;50.364;8.958;2022-09-13T04:18:35;7.90;;;6.33;;
17228;SDS011;8731;50.364;8.958;2022-09-13T04:22:57;6.80;;;6.10;;
17228;SDS011;8731;50.364;8.958;2022-09-13T04:27:20;6.27;;;5.67;;
17228;SDS011;8731;50.364;8.958;2022-09-13T04:31:44;7.33;;;6.03;;
17228;SDS011;8731;50.364;8.958;2022-09-13T04:36:07;10.87;;;6.20;;
17228;SDS011;8731;50.364;8.958;2022-09-13T04:40:29;6.67;;;5.93;;
17228;SDS011;8731;50.364;8.958;2022-09-13T04:44:52;10.47;;;7.03;;
17228;SDS011;8731;50.364;8.958;2022-09-13T04:49:16;8.43;;;6.80;;
17228;SDS011;8731;50.364;8.958;2022-09-13T04:53:40;8.63;;;6.50;;
17228;SDS011;8731;50.364;8.958;2022-09-13T04:58:03;6.80;;;5.90;;
17228;SDS011;8731;50.364;8.958;2022-09-13T05:02:25;11.60;;;7.07;;
17228;SDS011;8731;50.364;8.958;2022-09-13T05:06:49;8.97;;;6.23;;
17228;SDS011;8731;50.364;8.958;2022-09-13T05:11:11;9.03;;;6.50;;
17228;SDS011;8731;50.364;8.958;2022-09-13T05:15:34;7.00;;;6.30;;
17228;SDS011;8731;50.364;8.958;2022-09-13T05:19:56;6.07;;;5.47;;
17228;SDS011;8731;50.364;8.958;2022-09-13T05:24:19;7.43;;;6.73;;
17228;SDS011;8731;50.364;8.958;2022-09-13T05:28:42;9.67;;;7.10;;
17228;SDS011;8731;50.364;8.958;2022-09-13T05:33:04;7.67;;;6.93;;
17228;SDS011;8731;50.364;8.958;2022-09-13T05:37:26;7.20;;;6.43;;
17228;SDS011;8731;50.364;8.958;2022-09-13T05:41:50;8.13;;;6.47;;
17228;SDS011;8731;50.364;8.958;2022-09-13T05:46:13;10.03;;;7.33;;
17228;SDS011;8731;50.364;8.958;2022-09-13T05:50:37;10.10;;;7.20;;
17228;SDS011;8731;50.364;8.958;2022-09-13T05:54:59;11.17;;;7.30;;
17228;SDS011;8731;50.364;8.958;2022-09-13T05:59:23;9.50;;;6.93;;
17228;SDS011;8731;50.364;8.958;2022-09-13T06:03:45;12.03;;;7.20;;
17228;SDS011;8731;50.364;8.958;2022-09-13T06:08:09;7.63;;;6.60;;
17228;SDS011;8731;50.364;8.958;2022-09-13T06:12:31;9.97;;;6.80;;
17228;SDS011;8731;50.364;8.958;2022-09-13T06:16:55;7.70;;;6.93;;
17228;SDS011;8731;50.364;8.958;2022-09-13T06:21:17;10.53;;;7.53;;
17228;SDS011;8731;50.364;8.958;2022-09-13T06:25:42;8.77;;;7.93;;
17228;SDS011;8731;50.364;8.958;2022-09-13T06:30:05;10.70;;;7.60;;
17228;SDS011;8731;50.364;8.958;2022-09-13T06:34:33;9.33;;;8.43;;
17228;SDS011;8731;50.364;8.958;2022-09-13T06:38:55;10.50;;;7.60;;
17228;SDS011;8731;50.364;8.958;2022-09-13T06:43:19;9.80;;;7.40;;
17228;SDS011;8731;50.364;8.958;2022-09-13T06:47:42;8.13;;;7.40;;
17228;SDS011;8731;50.364;8.958;2022-09-13T06:52:06;8.47;;;7.43;;
17228;SDS011;8731;50.364;8.958;2022-09-13T06:56:29;11.60;;;7.83;;
17228;SDS011;8731;50.364;8.958;2022-09-13T07:00:53;8.73;;;7.60;;
17228;SDS011;8731;50.364;8.958;2022-09-13T07:05:16;10.37;;;8.60;;
17228;SDS011;8731;50.364;8.958;2022-09-13T07:09:41;8.10;;;7.30;;
17228;SDS011;8731;50.364;8.958;2022-09-13T07:14:03;8.03;;;7.17;;
17228;SDS011;8731;50.364;8.958;2022-09-13T07:18:26;8.20;;;7.40;;
17228;SDS011;8731;50.364;8.958;2022-09-13T07:22:48;7.53;;;6.83;;
17228;SDS011;8731;50.364;8.958;2022-09-13T07:27:13;7.53;;;6.60;;
17228;SDS011;8731;50.364;8.958;2022-09-13T07:31:36;7.80;;;7.07;;
17228;SDS011;8731;50.364;8.958;2022-09-13T07:36:00;6.63;;;6.03;;
17228;SDS011;8731;50.364;8.958;2022-09-13T07:40:25;7.13;;;6.43;;
17228;SDS011;8731;50.364;8.958;2022-09-13T07:44:49;7.43;;;6.50;;
17228;SDS011;8731;50.364;8.958;2022-09-13T07:49:11;7.40;;;6.67;;
17228;SDS011;8731;50.364;8.958;2022-09-13T07:53:37;8.67;;;6.73;;
17228;SDS011;8731;50.364;8.958;2022-09-13T07:58:02;7.03;;;6.23;;
17228;SDS011;8731;50.364;8.958;2022-09-13T08:02:26;11.60;;;6.33;;
17228;SDS011;8731;50.364;8.958;2022-09-13T08:06:48;7.77;;;6.83;;
17228;SDS011;8731;50.364;8.958;2022-09-13T08:11:12;7.10;;;6.40;;
17228;SDS011;8731;50.364;8.958;2022-09-13T08:15:39;6.93;;;6.07;;
17228;SDS011;8731;50.364;8.958;2022-09-13T08:20:02;6.73;;;6.00;;
17228;SDS011;8731;50.364;8.958;2022-09-13T08:24:25;9.37;;;6.23;;
17228;SDS011;8731;50.364;8.958;2022-09-13T08:28:47;6.97;;;6.27;;
17228;SDS011;8731;50.364;8.958;2022-09-13T08:33:10;6.57;;;5.97;;
17228;SDS011;8731;50.364;8.958;2022-09-13T08:37:34;6.53;;;5.93;;
17228;SDS011;8731;50.364;8.958;2022-09-13T08:46:48;6.20;;;5.60;;
17228;SDS011;8731;50.364;8.958;2022-09-13T08:51:21;8.33;;;6.23;;
17228;SDS011;8731;50.364;8.958;2022-09-13T08:55:55;7.23;;;5.83;;
17228;SDS011;8731;50.364;8.958;2022-09-13T09:00:27;7.03;;;6.33;;
17228;SDS011;8731;50.364;8.958;2022-09-13T09:04:57;9.37;;;6.23;;
17228;SDS011;8731;50.364;8.958;2022-09-13T09:09:30;7.00;;;6.17;;
17228;SDS011;8731;50.364;8.958;2022-09-13T09:14:00;7.40;;;6.70;;
17228;SDS011;8731;50.364;8.958;2022-09-13T09:18:32;7.57;;;6.17;;
17228;SDS011;8731;50.364;8.958;2022-09-13T09:23:03;6.83;;;6.13;;
17228;SDS011;8731;50.364;8.958;2022-09-13T09:27:34;7.40;;;6.60;;
17228;SDS011;8731;50.364;8.958;2022-09-13T09:32:00;8.70;;;7.10;;
17228;SDS011;8731;50.364;8.958;2022-09-13T09:36:39;8.03;;;6.90;;
17228;SDS011;8731;50.364;8.958;2022-09-13T09:41:11;8.10;;;6.60;;
17228;SDS011;8731;50.364;8.958;2022-09-13T09:45:41;8.57;;;7.10;;
17228;SDS011;8731;50.364;8.958;2022-09-13T09:50:08;10.50;;;7.00;;
17228;SDS011;8731;50.364;8.958;2022-09-13T09:54:37;7.13;;;5.87;;
17228;SDS011;8731;50.364;8.958;2022-09-13T09:59:00;7.97;;;6.97;;
17228;SDS011;8731;50.364;8.958;2022-09-13T10:03:24;9.30;;;6.73;;
17228;SDS011;8731;50.364;8.958;2022-09-13T10:07:55;6.73;;;5.93;;
17228;SDS011;8731;50.364;8.958;2022-09-13T10:12:24;7.33;;;6.50;;
17228;SDS011;8731;50.364;8.958;2022-09-13T10:16:48;8.10;;;7.37;;
17228;SDS011;8731;50.364;8.958;2022-09-13T10:21:25;8.23;;;7.43;;
17228;SDS011;8731;50.364;8.958;2022-09-13T10:25:56;9.33;;;8.30;;
17228;SDS011;8731;50.364;8.958;2022-09-13T10:30:29;11.40;;;8.70;;
17228;SDS011;8731;50.364;8.958;2022-09-13T10:34:59;11.00;;;8.73;;
17228;SDS011;8731;50.364;8.958;2022-09-13T10:39:30;12.83;;;9.33;;
17228;SDS011;8731;50.364;8.958;2022-09-13T10:43:58;11.63;;;9.37;;
17228;SDS011;8731;50.364;8.958;2022-09-13T10:48:23;12.57;;;9.00;;
17228;SDS011;8731;50.364;8.958;2022-09-13T10:52:46;10.93;;;9.90;;
17228;SDS011;8731;50.364;8.958;2022-09-13T10:57:19;11.17;;;9.93;;
17228;SDS011;8731;50.364;8.958;2022-09-13T11:01:58;10.27;;;9.23;;
17228;SDS011;8731;50.364;8.958;2022-09-13T11:07:14;9.77;;;8.53;;
17228;SDS011;8731;50.364;8.958;2022-09-13T11:11:51;10.30;;;9.10;;
17228;SDS011;8731;50.364;8.958;2022-09-13T11:16:33;12.77;;;8.93;;
17228;SDS011;8731;50.364;8.958;2022-09-13T11:21:18;8.97;;;8.10;;
17228;SDS011;8731;50.364;8.958;2022-09-13T11:26:02;8.87;;;7.37;;
17228;SDS011;8731;50.364;8.958;2022-09-13T11:30:46;9.40;;;8.40;;
17228;SDS011;8731;50.364;8.958;2022-09-13T11:35:33;11.30;;;8.17;;
17228;SDS011;8731;50.364;8.958;2022-09-13T11:40:14;9.00;;;8.07;;
17228;SDS011;8731;50.364;8.958;2022-09-13T11:49:47;7.70;;;7.00;;
17228;SDS011;8731;50.364;8.958;2022-09-13T11:54:36;7.97;;;7.17;;
17228;SDS011;8731;50.364;8.958;2022-09-13T11:59:20;8.27;;;6.57;;
17228;SDS011;8731;50.364;8.958;2022-09-13T12:03:58;6.93;;;5.73;;
17228;SDS011;8731;50.364;8.958;2022-09-13T12:08:27;6.73;;;5.87;;
17228;SDS011;8731;50.364;8.958;2022-09-13T12:12:55;6.17;;;5.43;;
17228;SDS011;8731;50.364;8.958;2022-09-13T12:17:25;5.57;;;5.10;;
17228;SDS011;8731;50.364;8.958;2022-09-13T12:21:55;6.20;;;5.33;;
17228;SDS011;8731;50.364;8.958;2022-09-13T12:26:21;6.50;;;5.03;;
17228;SDS011;8731;50.364;8.958;2022-09-13T12:30:51;5.17;;;4.70;;
17228;SDS011;8731;50.364;8.958;2022-09-13T12:35:22;5.70;;;4.80;;
17228;SDS011;8731;50.364;8.958;2022-09-13T12:39:58;6.40;;;4.70;;
17228;SDS011;8731;50.364;8.958;2022-09-13T12:44:56;6.30;;;4.63;;
17228;SDS011;8731;50.364;8.958;2022-09-13T12:49:44;4.87;;;3.60;;
17228;SDS011;8731;50.364;8.958;2022-09-13T12:54:37;3.97;;;3.53;;
17228;SDS011;8731;50.364;8.958;2022-09-13T12:59:34;6.07;;;3.50;;
17228;SDS011;8731;50.364;8.958;2022-09-13T13:04:31;5.70;;;3.97;;
17228;SDS011;8731;50.364;8.958;2022-09-13T13:08:57;6.00;;;3.50;;
17228;SDS011;8731;50.364;8.958;2022-09-13T13:13:33;3.60;;;3.00;;
17228;SDS011;8731;50.364;8.958;2022-09-13T13:18:18;4.87;;;3.03;;
17228;SDS011;8731;50.364;8.958;2022-09-13T13:22:48;7.30;;;3.20;;
17228;SDS011;8731;50.364;8.958;2022-09-13T13:36:44;3.27;;;2.50;;
17228;SDS011;8731;50.364;8.958;2022-09-13T13:55:49;5.67;;;4.07;;
17228;SDS011;8731;50.364;8.958;2022-09-13T14:00:40;5.47;;;2.93;;
17228;SDS011;8731;50.364;8.958;2022-09-13T14:05:12;3.47;;;2.90;;
17228;SDS011;8731;50.364;8.958;2022-09-13T14:09:50;4.63;;;3.83;;
17228;SDS011;8731;50.364;8.958;2022-09-13T14:14:27;4.20;;;3.70;;
17228;SDS011;8731;50.364;8.958;2022-09-13T14:19:08;10.83;;;7.43;;
17228;SDS011;8731;50.364;8.958;2022-09-13T14:23:44;10.27;;;6.27;;
17228;SDS011;8731;50.364;8.958;2022-09-13T14:28:06;6.60;;;3.77;;
17228;SDS011;8731;50.364;8.958;2022-09-13T14:32:31;3.13;;;2.43;;
17228;SDS011;8731;50.364;8.958;2022-09-13T14:37:04;4.57;;;3.27;;
17228;SDS011;8731;50.364;8.958;2022-09-13T14:41:37;5.53;;;3.43;;
17228;SDS011;8731;50.364;8.958;2022-09-13T14:46:01;7.23;;;3.70;;
17228;SDS011;8731;50.364;8.958;2022-09-13T14:50:30;6.17;;;3.07;;
17228;SDS011;8731;50.364;8.958;2022-09-13T14:54:59;5.77;;;5.13;;
17228;SDS011;8731;50.364;8.958;2022-09-13T14:59:25;9.33;;;6.07;;
17228;SDS011;8731;50.364;8.958;2022-09-13T15:03:53;12.03;;;8.17;;
17228;SDS011;8731;50.364;8.958;2022-09-13T15:08:38;9.23;;;6.60;;
17228;SDS011;8731;50.364;8.958;2022-09-13T15:13:07;9.97;;;5.10;;
17228;SDS011;8731;50.364;8.958;2022-09-13T15:17:30;5.73;;;3.40;;
17228;SDS011;8731;50.364;8.958;2022-09-13T15:22:14;4.07;;;3.00;;
17228;SDS011;8731;50.364;8.958;2022-09-13T15:26:45;3.47;;;2.90;;
17228;SDS011;8731;50.364;8.958;2022-09-13T15:31:08;9.00;;;3.63;;
17228;SDS011;8731;50.364;8.958;2022-09-13T15:35:34;6.37;;;3.03;;
17228;SDS011;8731;50.364;8.958;2022-09-13T15:40:07;5.97;;;3.03;;
17228;SDS011;8731;50.364;8.958;2022-09-13T15:44:37;6.60;;;3.30;;
17228;SDS011;8731;50.364;8.958;2022-09-13T15:49:00;5.60;;;3.47;;
17228;SDS011;8731;50.364;8.958;2022-09-13T15:53:25;4.83;;;3.10;;
17228;SDS011;8731;50.364;8.958;2022-09-13T15:57:48;5.57;;;3.23;;
17228;SDS011;8731;50.364;8.958;2022-09-13T16:02:17;6.77;;;3.43;;
17228;SDS011;8731;50.364;8.958;2022-09-13T16:06:42;5.37;;;3.53;;
17228;SDS011;8731;50.364;8.958;2022-09-13T16:11:05;5.30;;;3.10;;
17228;SDS011;8731;50.364;8.958;2022-09-13T16:15:28;4.13;;;3.30;;
17228;SDS011;8731;50.364;8.958;2022-09-13T16:19:52;4.00;;;3.13;;
17228;SDS011;8731;50.364;8.958;2022-09-13T16:24:15;4.13;;;2.97;;
17228;SDS011;8731;50.364;8.958;2022-09-13T16:28:38;6.53;;;3.23;;
17228;SDS011;8731;50.364;8.958;2022-09-13T16:33:00;4.27;;;2.90;;
17228;SDS011;8731;50.364;8.958;2022-09-13T16:37:24;3.13;;;2.83;;
17228;SDS011;8731;50.364;8.958;2022-09-13T16:41:47;4.20;;;2.60;;
17228;SDS011;8731;50.364;8.958;2022-09-13T16:46:10;5.80;;;3.13;;
17228;SDS011;8731;50.364;8.958;2022-09-13T16:50:33;3.53;;;2.77;;
17228;SDS011;8731;50.364;8.958;2022-09-13T16:55:00;5.63;;;3.13;;
17228;SDS011;8731;50.364;8.958;2022-09-13T16:59:24;4.67;;;3.27;;
17228;SDS011;8731;50.364;8.958;2022-09-13T17:03:46;5.00;;;3.20;;
17228;SDS011;8731;50.364;8.958;2022-09-13T17:08:09;5.67;;;3.80;;
17228;SDS011;8731;50.364;8.958;2022-09-13T17:12:33;9.00;;;3.40;;
17228;SDS011;8731;50.364;8.958;2022-09-13T17:16:55;4.50;;;3.70;;
17228;SDS011;8731;50.364;8.958;2022-09-13T17:21:18;5.87;;;3.43;;
17228;SDS011;8731;50.364;8.958;2022-09-13T17:25:42;5.30;;;3.20;;
17228;SDS011;8731;50.364;8.958;2022-09-13T17:30:10;8.40;;;3.70;;
17228;SDS011;8731;50.364;8.958;2022-09-13T17:34:33;11.23;;;4.10;;
17228;SDS011;8731;50.364;8.958;2022-09-13T17:38:56;8.70;;;4.10;;
17228;SDS011;8731;50.364;8.958;2022-09-13T17:43:18;4.60;;;4.17;;
17228;SDS011;8731;50.364;8.958;2022-09-13T17:47:42;7.57;;;4.80;;
17228;SDS011;8731;50.364;8.958;2022-09-13T17:52:04;8.47;;;4.93;;
17228;SDS011;8731;50.364;8.958;2022-09-13T17:56:27;7.83;;;4.80;;
17228;SDS011;8731;50.364;8.958;2022-09-13T18:00:58;6.80;;;5.20;;
17228;SDS011;8731;50.364;8.958;2022-09-13T18:05:24;10.83;;;5.50;;
17228;SDS011;8731;50.364;8.958;2022-09-13T18:09:46;9.63;;;5.03;;
17228;SDS011;8731;50.364;8.958;2022-09-13T18:14:10;7.30;;;4.63;;
17228;SDS011;8731;50.364;8.958;2022-09-13T18:18:34;6.13;;;4.57;;
17228;SDS011;8731;50.364;8.958;2022-09-13T18:22:59;6.60;;;5.03;;
17228;SDS011;8731;50.364;8.958;2022-09-13T18:27:21;7.40;;;5.10;;
17228;SDS011;8731;50.364;8.958;2022-09-13T18:31:43;7.73;;;5.27;;
17228;SDS011;8731;50.364;8.958;2022-09-13T18:36:06;7.67;;;4.90;;
17228;SDS011;8731;50.364;8.958;2022-09-13T18:40:33;7.07;;;5.33;;
17228;SDS011;8731;50.364;8.958;2022-09-13T18:44:55;6.17;;;5.40;;
17228;SDS011;8731;50.364;8.958;2022-09-13T18:49:17;9.13;;;5.37;;
17228;SDS011;8731;50.364;8.958;2022-09-13T18:53:39;8.50;;;5.87;;
17228;SDS011;8731;50.364;8.958;2022-09-13T18:58:03;9.63;;;6.33;;
17228;SDS011;8731;50.364;8.958;2022-09-13T19:02:26;9.17;;;5.80;;
17228;SDS011;8731;50.364;8.958;2022-09-13T19:06:49;7.53;;;6.07;;
17228;SDS011;8731;50.364;8.958;2022-09-13T19:11:15;8.60;;;6.97;;
17228;SDS011;8731;50.364;8.958;2022-09-13T19:15:40;9.43;;;7.50;;
17228;SDS011;8731;50.364;8.958;2022-09-13T19:20:02;7.97;;;6.83;;
17228;SDS011;8731;50.364;8.958;2022-09-13T19:24:25;7.47;;;6.70;;
17228;SDS011;8731;50.364;8.958;2022-09-13T19:28:48;8.67;;;6.90;;
17228;SDS011;8731;50.364;8.958;2022-09-13T19:33:15;9.80;;;7.63;;
17228;SDS011;8731;50.364;8.958;2022-09-13T19:37:37;7.43;;;6.53;;
17228;SDS011;8731;50.364;8.958;2022-09-13T19:41:59;8.07;;;6.77;;
17228;SDS011;8731;50.364;8.958;2022-09-13T19:46:22;7.70;;;6.87;;
17228;SDS011;8731;50.364;8.958;2022-09-13T19:50:48;8.77;;;7.07;;
17228;SDS011;8731;50.364;8.958;2022-09-13T19:55:11;8.10;;;7.30;;
17228;SDS011;8731;50.364;8.958;2022-09-13T19:59:33;8.30;;;6.40;;
17228;SDS011;8731;50.364;8.958;2022-09-13T20:03:56;7.37;;;6.67;;
17228;SDS011;8731;50.364;8.958;2022-09-13T20:08:22;7.20;;;6.50;;
17228;SDS011;8731;50.364;8.958;2022-09-13T20:12:44;7.07;;;6.37;;
17228;SDS011;8731;50.364;8.958;2022-09-13T20:17:09;9.33;;;7.70;;
17228;SDS011;8731;50.364;8.958;2022-09-13T20:21:32;9.97;;;7.40;;
17228;SDS011;8731;50.364;8.958;2022-09-13T20:25:57;9.93;;;7.60;;
17228;SDS011;8731;50.364;8.958;2022-09-13T20:30:19;11.23;;;7.80;;
17228;SDS011;8731;50.364;8.958;2022-09-13T20:34:41;10.07;;;7.50;;
17228;SDS011;8731;50.364;8.958;2022-09-13T20:39:04;8.20;;;7.50;;
17228;SDS011;8731;50.364;8.958;2022-09-13T20:43:28;7.77;;;7.07;;
17228;SDS011;8731;50.364;8.958;2022-09-13T20:47:50;9.77;;;8.87;;
17228;SDS011;8731;50.364;8.958;2022-09-13T20:52:13;9.47;;;8.57;;
17228;SDS011;8731;50.364;8.958;2022-09-13T20:56:36;8.50;;;7.67;;
17228;SDS011;8731;50.364;8.958;2022-09-13T21:01:01;8.67;;;7.77;;
17228;SDS011;8731;50.364;8.958;2022-09-13T21:05:26;10.23;;;7.60;;
17228;SDS011;8731;50.364;8.958;2022-09-13T21:09:48;10.43;;;8.83;;
17228;SDS011;8731;50.364;8.958;2022-09-13T21:14:10;9.37;;;7.80;;
17228;SDS011;8731;50.364;8.958;2022-09-13T21:18:35;11.20;;;8.43;;
17228;SDS011;8731;50.364;8.958;2022-09-13T21:22:58;9.30;;;7.60;;
17228;SDS011;8731;50.364;8.958;2022-09-13T21:27:21;9.07;;;8.17;;
17228;SDS011;8731;50.364;8.958;2022-09-13T21:31:44;9.90;;;8.27;;
17228;SDS011;8731;50.364;8.958;2022-09-13T21:36:08;10.97;;;8.50;;
17228;SDS011;8731;50.364;8.958;2022-09-13T21:40:32;10.93;;;8.90;;
17228;SDS011;8731;50.364;8.958;2022-09-13T21:44:54;10.50;;;9.27;;
17228;SDS011;8731;50.364;8.958;2022-09-13T21:49:17;9.60;;;8.13;;
17228;SDS011;8731;50.364;8.958;2022-09-13T21:53:41;10.10;;;7.67;;
17228;SDS011;8731;50.364;8.958;2022-09-13T21:58:07;8.60;;;7.70;;
17228;SDS011;8731;50.364;8.958;2022-09-13T22:02:30;8.80;;;7.80;;
17228;SDS011;8731;50.364;8.958;2022-09-13T22:06:52;9.23;;;8.13;;
17228;SDS011;8731;50.364;8.958;2022-09-13T22:11:17;9.70;;;8.70;;
17228;SDS011;8731;50.364;8.958;2022-09-13T22:15:42;11.00;;;9.23;;
17228;SDS011;8731;50.364;8.958;2022-09-13T22:20:05;11.10;;;9.13;;
17228;SDS011;8731;50.364;8.958;2022-09-13T22:24:28;10.07;;;8.80;;
17228;SDS011;8731;50.364;8.958;2022-09-13T22:28:56;9.50;;;8.30;;
17228;SDS011;8731;50.364;8.958;2022-09-13T22:33:19;10.20;;;9.20;;
17228;SDS011;8731;50.364;8.958;2022-09-13T22:37:41;10.57;;;9.43;;
17228;SDS011;8731;50.364;8.958;2022-09-13T22:42:03;10.70;;;8.13;;
17228;SDS011;8731;50.364;8.958;2022-09-13T22:46:28;8.87;;;7.93;;
17228;SDS011;8731;50.364;8.958;2022-09-13T22:50:53;10.97;;;7.80;;
17228;SDS011;8731;50.364;8.958;2022-09-13T22:55:19;8.30;;;7.60;;
17228;SDS011;8731;50.364;8.958;2022-09-13T22:59:41;8.83;;;7.80;;
17228;SDS011;8731;50.364;8.958;2022-09-13T23:04:05;9.13;;;7.80;;
17228;SDS011;8731;50.364;8.958;2022-09-13T23:08:27;9.53;;;7.60;;
17228;SDS011;8731;50.364;8.958;2022-09-13T23:12:51;9.83;;;8.83;;
17228;SDS011;8731;50.364;8.958;2022-09-13T23:17:13;9.80;;;8.13;;
17228;SDS011;8731;50.364;8.958;2022-09-13T23:21:37;10.77;;;8.50;;
17228;SDS011;8731;50.364;8.958;2022-09-13T23:26:02;10.03;;;8.80;;
17228;SDS011;8731;50.364;8.958;2022-09-13T23:30:26;13.43;;;8.90;;
17228;SDS011;8731;50.364;8.958;2022-09-13T23:34:48;9.03;;;8.13;;
17228;SDS011;8731;50.364;8.958;2022-09-13T23:39:12;10.40;;;8.40;;
17228;SDS011;8731;50.364;8.958;2022-09-13T23:43:38;9.30;;;8.07;;
17228;SDS011;8731;50.364;8.958;2022-09-13T23:48:01;12.37;;;8.33;;
17228;SDS011;8731;50.364;8.958;2022-09-13T23:52:23;10.63;;;8.23;;
17228;SDS011;8731;50.364;8.958;2022-09-13T23:56:47;10.50;;;9.40;;
